Mendes, Georgia
Current Conditions -  °F | °C
As of 5:15 PM on Tuesday 25 Nov 2014 (Local Time) from KCWV Reporting Station
Drizzle Drizzle  
Wind Chill: 55°   Ceiling: 8000
Heat Index: 55°   Visibility: 10mi
Dew Point: 55°   Wind: 0mph
Humidity: 100%   Direction: NA
Pressure: 30.01"   Gusts: NA
Location:  31.9485°N, 81.9795°W
Report Text: KCWV 252215Z AUTO 00000KT 10SM -DZ SCT070 OVC080 13/13 A3001 RMK AO2 LTG DSNT S
Loading
Personal Weather Stations






























Interactive Weather Map New forecast layout! Learn more

10-Day Weather Forecast

Advertisements
Track Severe Weather on mobile